Frej — SBPT — position and weather

sailwx.info

Track history (hours):
 
Tides and Currents Weather Stations Pressure Air Temp Water Temp Dewpoint Dewpoint Depression Visibility Wind Speed Wind Dir Waves Ship Positions

Frej

Last reported at 2017-Feb-26 15:00 UTC. Time now 2017-Feb-26 16:50 UTC.
Position N 64°42' E 024°18'.

Length 108 m; draft 7.8 m.

Type: Other ship. MMSI: 265068000.

Wind from 010 at 8 knots

Barometer 998.7 mb
Air temperature -11.3 ° C
Water temperature 0.6 ° C

Date/timePositionNaut miles runAvg speedWind from/ knotsBaromVisibWave heightAir tempDewpointWater temp
2017-Feb-26 15:00N 64°42' E 024°18'0 0.0 010 / 8998.7 -11.3 0.6
2017-Feb-26 14:00N 64°42' E 024°18'5 1.7 020 / 8998.2 -11.1 0.5
2017-Feb-26 11:00N 64°42' E 024°06'1414.3 050 / 10997.1 -11.3 0.2
2017-Feb-26 10:00N 64°30' E 023°48'3 2.6 010 / 12996.9 -10.7 0.2
2017-Feb-26 09:00N 64°30' E 023°42'10 9.8 010 / 12996.7 -10.4 0.3
2017-Feb-26 08:00N 64°24' E 023°24'1010.4 010 / 17996.3 -10.0 0.3
2017-Feb-26 07:00N 64°24' E 023°00'3 2.6 030 / 17995.7 -7.8 0.5
2017-Feb-26 06:00N 64°24' E 023°06'1010.4 040 / 14995.4 -6.5 0.3
2017-Feb-26 05:00N 64°24' E 023°30'8 7.9 020 / 14995.2 -5.4 0.3
2017-Feb-26 04:00N 64°30' E 023°42'1211.9 340 / 16994.7 -5.6 0.3
2017-Feb-26 03:00N 64°36' E 024°06'12 6.0 320 / 16994.1 -6.4 0.3
2017-Feb-26 01:00N 64°48' E 024°06'6 6.0 300 / 16993.9 -6.6 0.3
2017-Feb-26 00:00N 64°42' E 024°06'6 3.0 310 / 19993.9 -5.8 0.3
2017-Feb-25 22:00N 64°36' E 024°06'1211.9 290 / 17994.0 -4.9 0.3
2017-Feb-25 21:00N 64°30' E 023°42'3 2.6 300 / 19994.2 -5.1 0.3
2017-Feb-25 20:00N 64°30' E 023°36'1414.2 290 / 17994.2 -4.3 0.3
2017-Feb-25 19:00N 64°36' E 024°06'8 7.9 290 / 19993.5 -4.6 0.3
2017-Feb-25 18:00N 64°42' E 024°18'0 0.0 290 / 17993.8 -4.8 0.6
2017-Feb-25 17:00N 64°42' E 024°18'0 0.0 290 / 17993.8 -5.2 0.6
2017-Feb-25 16:00N 64°42' E 024°18'0 0.0 310 / 16993.8 -5.4 0.6
2017-Feb-25 15:00N 64°42' E 024°18'0 0.0 310 / 17993.7 -5.5 0.7
2017-Feb-25 14:00N 64°42' E 024°18'0 0.0 300 / 16993.5 -5.7 0.6
2017-Feb-25 13:00N 64°42' E 024°18'0 0.0 300 / 16993.0 -5.9 0.5
2017-Feb-25 12:00N 64°42' E 024°18'0 0.0 320 / 12992.7 -5.8 0.3
2017-Feb-25 10:00N 64°42' E 024°18'0 0.0 310 / 16992.3 -6.0 0.6
2017-Feb-25 09:00N 64°42' E 024°18'0 0.0 300 / 19992.1 -6.3 0.6
2017-Feb-25 08:00N 64°42' E 024°18'7 6.5 310 / 19991.7 -7.2 0.4
2017-Feb-25 07:00N 64°36' E 024°12'7 6.5 330 / 21991.2 -6.5 0.2
2017-Feb-25 06:00N 64°42' E 024°18'6 6.0 340 / 17991.0 -7.0 0.3
2017-Feb-25 05:00N 64°36' E 024°18'6 6.0 330 / 21990.8 -6.8 0.8
2017-Feb-25 04:00N 64°42' E 024°18'6 6.0 330 / 19990.6 -7.2 0.7
2017-Feb-25 03:00N 64°36' E 024°18'0 0.0 310 / 12990.9 -7.8 0.7
2017-Feb-25 02:00N 64°36' E 024°18'0 0.0 330 / 14990.8 -8.2 0.6
2017-Feb-25 01:00N 64°36' E 024°18'0 0.0 350 / 14990.5 -9.0 0.6
2017-Feb-25 00:00N 64°36' E 024°18'7 6.5 340 / 17990.0 -8.7 0.5
2017-Feb-24 23:00N 64°42' E 024°24'8 7.7 010 / 17989.4 -9.1 0.3
2017-Feb-24 22:00N 64°42' E 024°06'8 7.9 989.0 -7.9 0.3
2017-Feb-24 21:00N 64°48' E 023°54'1212.3 360 / 21989.1 -8.8 0.3
2017-Feb-24 20:00N 65°00' E 023°48'1212.3 350 / 17988.6 -9.1 0.2
2017-Feb-24 19:00N 65°12' E 023°54'6 6.0 987.7 -8.7 0.2
2017-Feb-24 18:00N 65°18' E 023°54'0 0.0 987.0 -8.7 0.3
2017-Feb-24 17:00N 65°18' E 023°54'0 0.0 010 / 25986.4 -8.6 0.3
2017-Feb-24 16:00N 65°18' E 023°54'0 0.0 985.8 -8.6 0.3
2017-Feb-24 15:00N 65°18' E 023°54'0 0.0 010 / 25984.8 -8.6 0.3
2017-Feb-24 14:00N 65°18' E 023°54'0 0.0 010 / 23984.2 -8.9 0.3
2017-Feb-24 13:00N 65°18' E 023°54'0 0.0 020 / 21983.4 -9.3 0.3
2017-Feb-24 12:00N 65°18' E 023°54'3 2.5 020 / 21982.8 -9.3 0.3
2017-Feb-24 11:00N 65°18' E 024°00'0 0.0 020 / 19982.2 -9.6 0.3
2017-Feb-24 10:00N 65°18' E 024°00'0 0.0 030 / 19981.5 -9.9 0.3
2017-Feb-24 09:00N 65°18' E 024°00'0 0.0 020 / 21981.1 -9.9 0.3
2017-Feb-24 08:00N 65°18' E 024°00'0 0.0 020 / 21980.4 -9.7 0.3
2017-Feb-24 07:00N 65°18' E 024°00'0 0.0 030 / 19979.6 -9.2 0.3
2017-Feb-24 06:00N 65°18' E 024°00'0 0.0 030 / 17979.0 -8.8 0.3
2017-Feb-24 05:00N 65°18' E 024°00'0 0.0 020 / 19978.9 -8.7 0.3
2017-Feb-24 04:00N 65°18' E 024°00'0 0.0 020 / 19978.4 -8.7 0.3
2017-Feb-24 03:00N 65°18' E 024°00'0 0.0 020 / 21978.0 -8.6 0.3
2017-Feb-24 02:00N 65°18' E 024°00'6 6.0 020 / 21977.8 -8.6 0.3
2017-Feb-24 01:00N 65°24' E 024°00'0 0.0 020 / 19977.5 -8.6 0.4
2017-Feb-24 00:00N 65°24' E 024°00'0 0.0 020 / 19977.4 -8.5 0.4
2017-Feb-23 23:00N 65°24' E 024°00'7 6.5 020 / 21977.2 -8.6 0.4
2017-Feb-23 22:00N 65°18' E 023°54'0 0.0 020 / 21977.0 -8.4 0.3
2017-Feb-23 21:00N 65°18' E 023°54'6 6.0 030 / 25976.8 -8.3 0.3
2017-Feb-23 20:00N 65°24' E 023°54'0 0.0 030 / 21976.7 -8.4 0.3
2017-Feb-23 19:00N 65°24' E 023°54'7 6.5 040 / 19976.5 -8.2 0.3
2017-Feb-23 18:00N 65°18' E 023°48'0 0.0 030 / 21976.4 -8.0 0.3
2017-Feb-23 17:00N 65°18' E 023°48'0 0.0 030 / 21976.3 -7.9 0.3
2017-Feb-23 16:00N 65°18' E 023°48'10 9.6 040 / 23976.0 -7.9 0.3
2017-Feb-23 15:00N 65°24' E 024°06'10 9.6 040 / 17976.1 -7.7 0.3
2017-Feb-23 14:00N 65°30' E 024°24'2 2.5 050 / 16976.1 -8.0 0.4
2017-Feb-23 13:00N 65°30' E 024°18'10 9.6 050 / 19975.2 -8.0 0.3
2017-Feb-23 12:00N 65°24' E 024°00'2 2.5 070 / 19974.8 -7.7 0.3
2017-Feb-23 11:00N 65°24' E 024°06'10 9.6 080 / 21975.3 -7.9 0.3
2017-Feb-23 10:00N 65°30' E 024°24'1313.0 070 / 19975.5 -8.5 0.3
2017-Feb-23 09:00N 65°42' E 024°12'0 0.0 060 / 16975.7 -8.6 0.6
2017-Feb-23 08:00N 65°42' E 024°12'8 7.8 060 / 16975.8 -8.6 0.6
2017-Feb-23 07:00N 65°36' E 024°24'6 6.0 090 / 17976.1 -8.6 0.3
2017-Feb-23 06:00N 65°30' E 024°24'2 2.5 100 / 21975.5 -8.7 0.3
2017-Feb-23 05:00N 65°30' E 024°18'0 0.0 110 / 19975.4 -8.6 0.3
2017-Feb-23 04:00N 65°30' E 024°18'6 6.5 110 / 21975.6 -8.2 0.3
2017-Feb-23 03:00N 65°24' E 024°12'2 2.5 100 / 23975.5 -7.9 0.3
2017-Feb-23 02:00N 65°24' E 024°06'8 7.8 090 / 25976.3 -7.7 0.3
2017-Feb-23 01:00N 65°18' E 023°54'3 2.5 110 / 23976.0 -7.3 0.3
2017-Feb-23 00:00N 65°18' E 023°48'0 0.0 110 / 25976.5 -7.6 0.3
2017-Feb-22 23:00N 65°18' E 023°48'8 7.5 110 / 21977.4 -8.1 0.3
2017-Feb-22 22:00N 65°18' E 024°06'3 2.5 120 / 21978.4 -8.2 0.3
2017-Feb-22 21:00N 65°18' E 024°00'7 3.3 130 / 23978.6 -7.7 0.3
2017-Feb-22 19:00N 65°24' E 024°06'0 0.0 140 / 19979.5 -7.4 0.3
2017-Feb-22 18:00N 65°24' E 024°06'0 0.0 150 / 21980.2 -7.3 0.3
2017-Feb-22 17:00N 65°24' E 024°06'0 0.0 150 / 23980.7 -7.0 0.3
2017-Feb-22 16:00N 65°24' E 024°06'2 2.5 140 / 23981.4 -6.9 0.3
2017-Feb-22 15:00N 65°24' E 024°12'6 6.0 150 / 21982.3 -7.0 0.3
2017-Feb-22 14:00N 65°30' E 024°12'2 2.5 140 / 23983.2 -7.7 0.3
2017-Feb-22 13:00N 65°30' E 024°18'2 2.5 150 / 27984.1 -8.4 0.3
2017-Feb-22 12:00N 65°30' E 024°24'8 7.8 140 / 19985.0 -8.4 0.3
2017-Feb-22 11:00N 65°24' E 024°12'8 7.8 170 / 25986.1 -6.6 0.3
2017-Feb-22 10:00N 65°18' E 024°00'7 6.5 170 / 27986.6 -7.1 0.3
2017-Feb-22 09:00N 65°24' E 024°06'0 0.0 180 / 19987.2 -7.2 0.3
2017-Feb-22 08:00N 65°24' E 024°06'7 6.5 190 / 19988.0 -6.2 0.3
2017-Feb-22 07:00N 65°18' E 024°00'7 6.5 200 / 21988.4 -5.1 0.3
2017-Feb-22 06:00N 65°24' E 024°06'8 7.8 170 / 16988.9 -4.7 0.3
2017-Feb-22 05:00N 65°30' E 024°18'6 6.5 170 / 12989.5 -7.9 0.3
2017-Feb-22 04:00N 65°24' E 024°12'10 9.6 200 / 10990.2 -6.0 0.3
2017-Feb-22 03:00N 65°18' E 023°54'7 6.5 210 / 17991.0 -6.0 0.3
2017-Feb-22 02:00N 65°24' E 024°00'0 0.0 200 / 14991.9 -7.0 0.3
2017-Feb-22 01:00N 65°24' E 024°00'7 6.5 210 / 17992.4 -7.5 0.2
2017-Feb-22 00:00N 65°18' E 023°54'1212.3 230 / 14993.1 -7.2 0.3
2017-Feb-21 23:00N 65°06' E 023°48'16 3.3 240 / 12993.9 -6.1 0.3
2017-Feb-21 18:00N 65°12' E 024°24'5 5.0 290 / 14994.7 -8.2 0.3
2017-Feb-21 17:00N 65°12' E 024°36'8 7.8 300 / 12994.6 -8.9 0.3
2017-Feb-21 16:00N 65°06' E 024°48'8 7.6 280 / 14993.7 -9.4 0.4
2017-Feb-21 15:00N 65°06' E 025°06'0 0.0 290 / 10994.0 -11.4 0.4
2017-Feb-21 14:00N 65°06' E 025°06'0 0.0 320 / 12993.6 -11.1 1.2
2017-Feb-21 13:00N 65°06' E 025°06'0 0.0 300 / 12993.4 -11.7 1.3
2017-Feb-21 12:00N 65°06' E 025°06'0 0.0 300 / 6992.8 -13.2 1.4
2017-Feb-21 11:00N 65°06' E 025°06'0 0.0 340 / 8992.1 -14.3 1.3
2017-Feb-21 10:00N 65°06' E 025°06'0 0.0 330 / 10991.8 -14.6 1.3
2017-Feb-21 09:00N 65°06' E 025°06'0 0.0 320 / 12991.1 -16.0 1.3
2017-Feb-21 08:00N 65°06' E 025°06'0 0.0 330 / 10990.2 -17.0 1.2
2017-Feb-21 07:00N 65°06' E 025°06'0 0.0 340 / 12989.7 -16.7 1.1
2017-Feb-21 06:00N 65°06' E 025°06'0 0.0 320 / 14988.8 -16.0 1.2
2017-Feb-21 05:00N 65°06' E 025°06'0 0.0 320 / 19987.9 -14.8 1.2
2017-Feb-21 04:00N 65°06' E 025°06'0 0.0 320 / 17987.3 -14.4 1.1
2017-Feb-21 03:00N 65°06' E 025°06'0 0.0 320 / 16986.7 -14.6 1.2
2017-Feb-21 02:00N 65°06' E 025°06'0 0.0 320 / 17986.2 -13.8 1.0
2017-Feb-21 01:00N 65°06' E 025°06'0 0.0 330 / 17985.9 -13.4 1.1
2017-Feb-21 00:00N 65°06' E 025°06'0 0.0 310 / 14985.8 -11.3 0.9
2017-Feb-20 23:00N 65°06' E 025°06'0 0.0 300 / 17985.3 -10.2 0.9
2017-Feb-20 22:00N 65°06' E 025°06'0 0.0 270 / 16985.2 -8.0 0.8
2017-Feb-20 21:00N 65°06' E 025°06'0 0.0 220 / 12985.0 -8.5 1.0
2017-Feb-20 20:00N 65°06' E 025°06'0 0.0 200 / 8985.4 -8.1 0.8
2017-Feb-20 19:00N 65°06' E 025°06'0 0.0 190 / 14985.8 -7.6 0.5
2017-Feb-20 18:00N 65°06' E 025°06'8 7.6 170 / 12986.0 -6.0 0.5
2017-Feb-20 17:00N 65°06' E 024°48'8 7.8 170 / 8986.7 -5.6 0.3
2017-Feb-20 16:00N 65°12' E 024°36'10 9.7 220 / 12986.9 -4.9 0.3
2017-Feb-20 15:00N 65°06' E 024°18'7 6.5 210 / 12987.2 -5.1 0.3
2017-Feb-20 14:00N 65°00' E 024°12'0 0.0 210 / 10988.1 -4.7 0.3
2017-Feb-20 13:00N 65°00' E 024°12'1313.0 210 / 10988.0 -4.6 0.3
2017-Feb-20 12:00N 65°12' E 024°24'1211.7 180 / 16987.9 -6.2 0.3
2017-Feb-20 11:00N 65°06' E 024°48'5 5.1 200 / 14989.0 -7.0 0.3
2017-Feb-20 10:00N 65°06' E 025°00'1211.7 170 / 8989.2 -8.5 0.5
2017-Feb-20 09:00N 65°12' E 024°36'8 7.8 190 / 10989.3 -7.7 0.3
2017-Feb-20 08:00N 65°06' E 024°24'1312.6 270 / 2989.4 -7.2 0.3
2017-Feb-20 07:00N 65°06' E 023°54'3 2.5 020 / 2989.5 -8.2 0.3
2017-Feb-20 06:00N 65°06' E 023°48'0 0.0 270 / 6989.4 -8.0 0.7
2017-Feb-20 05:00N 65°06' E 023°48'0 0.0 200 / 2989.7 -7.8 0.7
2017-Feb-20 04:00N 65°06' E 023°48'0 0.0 090 / 4989.6 -7.6 0.6
2017-Feb-20 03:00N 65°06' E 023°48'0 0.0 010 / 10989.2 -7.8 0.5
2017-Feb-20 02:00N 65°06' E 023°48'0 0.0 989.3 -7.8 0.5
2017-Feb-20 01:00N 65°06' E 023°48'0 0.0 360 / 14989.4 -7.4 0.5
2017-Feb-20 00:00N 65°06' E 023°48'6 6.0 350 / 17988.9 -7.1 0.4
2017-Feb-19 23:00N 65°00' E 023°48'1313.0 350 / 17987.7 -6.7 0.3
2017-Feb-19 22:00N 64°48' E 024°00'13 6.5 340 / 25986.5 -5.7 0.4
2017-Feb-19 20:00N 64°36' E 024°12'1414.3 030 / 19984.9 -4.3 0.3
2017-Feb-19 19:00N 64°48' E 023°54'2512.6 020 / 19985.6 -4.3 0.4
2017-Feb-19 17:00N 65°12' E 023°36'1615.6 040 / 16987.6 -5.7 0.3
2017-Feb-19 16:00N 65°24' E 024°00'0 0.0 050 / 12988.0 -6.5 0.4
2017-Feb-19 15:00N 65°24' E 024°00'0 0.0 050 / 10988.6 -6.1 0.4
2017-Feb-19 14:00N 65°24' E 024°00'0 0.0 050 / 12989.3 -6.1 0.4
2017-Feb-19 13:00N 65°24' E 024°00'0 0.0 050 / 12989.9 -6.2 0.4
2017-Feb-19 12:00N 65°24' E 024°00'0 0.0 050 / 14990.8 -6.3 0.4
2017-Feb-19 11:00N 65°24' E 024°00'0 0.0 050 / 10991.4 -7.1 0.4
2017-Feb-19 10:00N 65°24' E 024°00'0 0.0 050 / 14991.8 -8.1 0.4
2017-Feb-19 09:00N 65°24' E 024°00'0 0.0 050 / 12992.4 -7.9 0.4
2017-Feb-19 08:00N 65°24' E 024°00'0 0.0 080 / 14992.2 -7.7 0.4
2017-Feb-19 07:00N 65°24' E 024°00'0 0.0 080 / 12992.9 -7.2 0.4
2017-Feb-19 06:00N 65°24' E 024°00'0 0.0 080 / 16993.3 -6.8 0.4
2017-Feb-19 05:00N 65°24' E 024°00'0 0.0 080 / 12993.9 -6.3 0.4
2017-Feb-19 04:00N 65°24' E 024°00'0 0.0 090 / 12994.6 -5.1 0.4
2017-Feb-19 03:00N 65°24' E 024°00'0 0.0 090 / 12995.3 -4.3 0.4
2017-Feb-19 02:00N 65°24' E 024°00'2 2.5 090 / 12995.9 -4.1 0.3
2017-Feb-19 01:00N 65°24' E 024°06'10 9.6 110 / 10996.8 -4.6 0.3
2017-Feb-19 00:00N 65°30' E 024°24'6 6.5 080 / 10997.9 -7.8 0.4
2017-Feb-18 23:00N 65°36' E 024°30'0 0.0 100 / 10998.4 -7.5 0.6
2017-Feb-18 22:00N 65°36' E 024°30'8 7.8 080 / 8998.8 -7.4 0.4
2017-Feb-18 21:00N 65°30' E 024°18'6 6.5 160 / 6998.9 -3.6 0.3
2017-Feb-18 20:00N 65°24' E 024°12'2 2.5 150 / 6999.1 -3.1 0.3
2017-Feb-18 19:00N 65°24' E 024°06'2 2.5 170 / 6999.5 -2.3 0.3
2017-Feb-18 18:00N 65°24' E 024°00'1414.2 140 / 4100.0 -1.9 0.3
2017-Feb-18 17:00N 65°12' E 023°42'1414.2 180 / 61000.1 -1.1 0.3
2017-Feb-18 16:00N 65°24' E 024°00'10 9.6 250 / 6999.8 -2.3 0.3
2017-Feb-18 15:00N 65°30' E 024°18'6 6.5 290 / 61000.1 -2.5 0.3
2017-Feb-18 14:00N 65°24' E 024°12'5 5.0 320 / 8999.8 -2.5 0.3
2017-Feb-18 13:00N 65°24' E 024°00'5 5.0 310 / 101000.2 -1.7 0.3
2017-Feb-18 12:00N 65°24' E 024°12'0 0.0 280 / 8999.7 -1.9 0.3
2017-Feb-18 11:00N 65°24' E 024°12'5 5.0 290 / 8999.2 -1.5 0.3
2017-Feb-18 10:00N 65°24' E 024°00'10 9.6 310 / 10998.9 -1.2 0.3
2017-Feb-18 09:00N 65°18' E 023°42'7 6.5 290 / 17998.8 -1.5 0.3
2017-Feb-18 08:00N 65°12' E 023°36'10 9.7 300 / 19999.0 -1.0 0.3
2017-Feb-18 07:00N 65°06' E 023°18'10 9.7 290 / 27997.9 -0.0 0.3
2017-Feb-18 06:00N 65°12' E 023°36'8 7.8 270 / 33996.8 -0.5 0.3
2017-Feb-18 05:00N 65°18' E 023°48'7 6.5 260 / 31996.7 -0.3 0.3
2017-Feb-18 04:00N 65°24' E 023°54'5 5.0 260 / 33996.7 -0.3 0.3
2017-Feb-18 03:00N 65°24' E 024°06'6 6.5 260 / 31997.7 -0.4 0.3
2017-Feb-18 02:00N 65°30' E 024°12'2 2.5 260 / 23998.6 -0.8 0.3
2017-Feb-18 01:00N 65°30' E 024°18'8 7.8 270 / 25999.0 -0.8 0.3
2017-Feb-18 00:00N 65°24' E 024°06'2 2.5 270 / 29999.6 -0.3 0.3
2017-Feb-17 23:00N 65°24' E 024°00'2 2.5 270 / 29999.7 0.1 0.3
2017-Feb-17 22:00N 65°24' E 024°06'8 7.8 270 / 27999.6 -0.4 0.3
2017-Feb-17 21:00N 65°30' E 024°18'2 2.5 280 / 21999.5 -0.5 0.3
2017-Feb-17 20:00N 65°30' E 024°24'6 6.0 270 / 27999.2 -0.3 0.4
2017-Feb-17 19:00N 65°36' E 024°24'8 7.8 270 / 21999.5 -1.8 0.4
2017-Feb-17 18:00N 65°42' E 024°12'0 0.0 280 / 14999.6 0.4 0.6
2017-Feb-17 17:00N 65°42' E 024°12'0 0.0 290 / 19999.3 0.8 1.0
2017-Feb-17 16:00N 65°42' E 024°12'0 0.0 290 / 17998.9 0.2 1.1
2017-Feb-17 15:00N 65°42' E 024°12'0 0.0 300 / 19998.6 2.0 0.9
2017-Feb-17 14:00N 65°42' E 024°12'8 7.8 280 / 16998.1 3.2 0.4
2017-Feb-17 13:00N 65°36' E 024°24'0 0.0 280 / 16997.8 2.4 1.4
2017-Feb-17 12:00N 65°36' E 024°24'0 0.0 290 / 12997.5 0.1 1.2
2017-Feb-17 11:00N 65°36' E 024°24'0 0.0 280 / 17997.1 0.8 1.2
2017-Feb-17 10:00N 65°36' E 024°24'0 0.0 280 / 14996.6 -0.5 1.2
2017-Feb-17 09:00N 65°36' E 024°24'0 0.0 260 / 12996.2 0.1 1.2
2017-Feb-17 08:00N 65°36' E 024°24'0 0.0 250 / 17996.3 -0.0 1.0
2017-Feb-17 07:00N 65°36' E 024°24'0 0.0 240 / 19995.6 -1.2 1.1
2017-Feb-17 06:00N 65°36' E 024°24'0 0.0 240 / 19995.9 -1.9 1.2
2017-Feb-17 05:00N 65°36' E 024°24'0 0.0 250 / 21996.9 -2.1 1.1
2017-Feb-17 04:00N 65°36' E 024°24'0 0.0 230 / 16997.6 -1.9 0.9
2017-Feb-17 03:00N 65°36' E 024°24'6 6.5 220 / 19997.9 -1.9 0.5
2017-Feb-17 02:00N 65°30' E 024°18'10 9.6 230 / 19999.3 -1.2 0.3
2017-Feb-17 01:00N 65°24' E 024°00'10 9.6 230 / 161000.1 -1.1 0.3
2017-Feb-17 00:00N 65°30' E 024°18'10 9.6 210 / 161000.7 -1.6 0.3
2017-Feb-16 23:00N 65°24' E 024°00'1414.2 220 / 161001.4 -1.2 0.3
2017-Feb-16 22:00N 65°12' E 023°42'7 6.5 210 / 171002.4 -0.7 0.3
2017-Feb-16 21:00N 65°06' E 023°36'0 0.0 220 / 211002.9 -0.3 0.7
2017-Feb-16 20:00N 65°06' E 023°36'0 0.0 220 / 231003.6 -0.2 0.6
2017-Feb-16 19:00N 65°06' E 023°36'1212.3 220 / 191004.4 -0.3 0.3
2017-Feb-16 18:00N 65°18' E 023°42'10 9.6 220 / 171004.7 -1.0 0.3
2017-Feb-16 17:00N 65°24' E 024°00'1414.2 200 / 141005.9 -1.1 0.3
2017-Feb-16 16:00N 65°12' E 023°42'1615.6 210 / 161005.7 -1.0 0.3
2017-Feb-16 15:00N 65°24' E 024°06'   220 / 121006.7 -1.9 0.3
Track history (hours):
 
Tides and Currents Weather Stations Pressure Air Temp Water Temp Dewpoint Dewpoint Depression Visibility Wind Speed Wind Dir Waves Ship Positions

Frej

Last reported at 2017-Feb-26 15:00 UTC. Time now 2017-Feb-26 16:50 UTC.
Position N 64°42' E 024°18'.

Length 108 m; draft 7.8 m.

Type: Other ship. MMSI: 265068000.

Wind from 010 at 8 knots

Barometer 998.7 mb
Air temperature -11.3 ° C
Water temperature 0.6 ° C

Date/timePositionNaut miles runAvg speedWind from/ knotsBaromVisibWave heightAir tempDewpointWater temp
2017-Feb-26 15:00N 64°42' E 024°18'0 0.0 010 / 8998.7 -11.3 0.6
2017-Feb-26 14:00N 64°42' E 024°18'5 1.7 020 / 8998.2 -11.1 0.5
2017-Feb-26 11:00N 64°42' E 024°06'1414.3 050 / 10997.1 -11.3 0.2
2017-Feb-26 10:00N 64°30' E 023°48'3 2.6 010 / 12996.9 -10.7 0.2
2017-Feb-26 09:00N 64°30' E 023°42'10 9.8 010 / 12996.7 -10.4 0.3
2017-Feb-26 08:00N 64°24' E 023°24'1010.4 010 / 17996.3 -10.0 0.3
2017-Feb-26 07:00N 64°24' E 023°00'3 2.6 030 / 17995.7 -7.8 0.5
2017-Feb-26 06:00N 64°24' E 023°06'1010.4 040 / 14995.4 -6.5 0.3
2017-Feb-26 05:00N 64°24' E 023°30'8 7.9 020 / 14995.2 -5.4 0.3
2017-Feb-26 04:00N 64°30' E 023°42'1211.9 340 / 16994.7 -5.6 0.3
2017-Feb-26 03:00N 64°36' E 024°06'12 6.0 320 / 16994.1 -6.4 0.3
2017-Feb-26 01:00N 64°48' E 024°06'6 6.0 300 / 16993.9 -6.6 0.3
2017-Feb-26 00:00N 64°42' E 024°06'6 3.0 310 / 19993.9 -5.8 0.3
2017-Feb-25 22:00N 64°36' E 024°06'1211.9 290 / 17994.0 -4.9 0.3
2017-Feb-25 21:00N 64°30' E 023°42'3 2.6 300 / 19994.2 -5.1 0.3
2017-Feb-25 20:00N 64°30' E 023°36'1414.2 290 / 17994.2 -4.3 0.3
2017-Feb-25 19:00N 64°36' E 024°06'8 7.9 290 / 19993.5 -4.6 0.3
2017-Feb-25 18:00N 64°42' E 024°18'0 0.0 290 / 17993.8 -4.8 0.6
2017-Feb-25 17:00N 64°42' E 024°18'0 0.0 290 / 17993.8 -5.2 0.6
2017-Feb-25 16:00N 64°42' E 024°18'0 0.0 310 / 16993.8 -5.4 0.6
2017-Feb-25 15:00N 64°42' E 024°18'0 0.0 310 / 17993.7 -5.5 0.7
2017-Feb-25 14:00N 64°42' E 024°18'0 0.0 300 / 16993.5 -5.7 0.6
2017-Feb-25 13:00N 64°42' E 024°18'0 0.0 300 / 16993.0 -5.9 0.5
2017-Feb-25 12:00N 64°42' E 024°18'0 0.0 320 / 12992.7 -5.8 0.3
2017-Feb-25 10:00N 64°42' E 024°18'0 0.0 310 / 16992.3 -6.0 0.6
2017-Feb-25 09:00N 64°42' E 024°18'0 0.0 300 / 19992.1 -6.3 0.6
2017-Feb-25 08:00N 64°42' E 024°18'7 6.5 310 / 19991.7 -7.2 0.4
2017-Feb-25 07:00N 64°36' E 024°12'7 6.5 330 / 21991.2 -6.5 0.2
2017-Feb-25 06:00N 64°42' E 024°18'6 6.0 340 / 17991.0 -7.0 0.3
2017-Feb-25 05:00N 64°36' E 024°18'6 6.0 330 / 21990.8 -6.8 0.8
2017-Feb-25 04:00N 64°42' E 024°18'6 6.0 330 / 19990.6 -7.2 0.7
2017-Feb-25 03:00N 64°36' E 024°18'0 0.0 310 / 12990.9 -7.8 0.7
2017-Feb-25 02:00N 64°36' E 024°18'0 0.0 330 / 14990.8 -8.2 0.6
2017-Feb-25 01:00N 64°36' E 024°18'0 0.0 350 / 14990.5 -9.0 0.6
2017-Feb-25 00:00N 64°36' E 024°18'7 6.5 340 / 17990.0 -8.7 0.5
2017-Feb-24 23:00N 64°42' E 024°24'8 7.7 010 / 17989.4 -9.1 0.3
2017-Feb-24 22:00N 64°42' E 024°06'8 7.9 989.0 -7.9 0.3
2017-Feb-24 21:00N 64°48' E 023°54'1212.3 360 / 21989.1 -8.8 0.3
2017-Feb-24 20:00N 65°00' E 023°48'1212.3 350 / 17988.6 -9.1 0.2
2017-Feb-24 19:00N 65°12' E 023°54'6 6.0 987.7 -8.7 0.2
2017-Feb-24 18:00N 65°18' E 023°54'0 0.0 987.0 -8.7 0.3
2017-Feb-24 17:00N 65°18' E 023°54'0 0.0 010 / 25986.4 -8.6 0.3
2017-Feb-24 16:00N 65°18' E 023°54'0 0.0 985.8 -8.6 0.3
2017-Feb-24 15:00N 65°18' E 023°54'0 0.0 010 / 25984.8 -8.6 0.3
2017-Feb-24 14:00N 65°18' E 023°54'0 0.0 010 / 23984.2 -8.9 0.3
2017-Feb-24 13:00N 65°18' E 023°54'0 0.0 020 / 21983.4 -9.3 0.3
2017-Feb-24 12:00N 65°18' E 023°54'3 2.5 020 / 21982.8 -9.3 0.3
2017-Feb-24 11:00N 65°18' E 024°00'0 0.0 020 / 19982.2 -9.6 0.3
2017-Feb-24 10:00N 65°18' E 024°00'0 0.0 030 / 19981.5 -9.9 0.3
2017-Feb-24 09:00N 65°18' E 024°00'0 0.0 020 / 21981.1 -9.9 0.3
2017-Feb-24 08:00N 65°18' E 024°00'0 0.0 020 / 21980.4 -9.7 0.3
2017-Feb-24 07:00N 65°18' E 024°00'0 0.0 030 / 19979.6 -9.2 0.3
2017-Feb-24 06:00N 65°18' E 024°00'0 0.0 030 / 17979.0 -8.8 0.3
2017-Feb-24 05:00N 65°18' E 024°00'0 0.0 020 / 19978.9 -8.7 0.3
2017-Feb-24 04:00N 65°18' E 024°00'0 0.0 020 / 19978.4 -8.7 0.3
2017-Feb-24 03:00N 65°18' E 024°00'0 0.0 020 / 21978.0 -8.6 0.3
2017-Feb-24 02:00N 65°18' E 024°00'6 6.0 020 / 21977.8 -8.6 0.3
2017-Feb-24 01:00N 65°24' E 024°00'0 0.0 020 / 19977.5 -8.6 0.4
2017-Feb-24 00:00N 65°24' E 024°00'0 0.0 020 / 19977.4 -8.5 0.4
2017-Feb-23 23:00N 65°24' E 024°00'7 6.5 020 / 21977.2 -8.6 0.4
2017-Feb-23 22:00N 65°18' E 023°54'0 0.0 020 / 21977.0 -8.4 0.3
2017-Feb-23 21:00N 65°18' E 023°54'6 6.0 030 / 25976.8 -8.3 0.3
2017-Feb-23 20:00N 65°24' E 023°54'0 0.0 030 / 21976.7 -8.4 0.3
2017-Feb-23 19:00N 65°24' E 023°54'7 6.5 040 / 19976.5 -8.2 0.3
2017-Feb-23 18:00N 65°18' E 023°48'0 0.0 030 / 21976.4 -8.0 0.3
2017-Feb-23 17:00N 65°18' E 023°48'0 0.0 030 / 21976.3 -7.9 0.3
2017-Feb-23 16:00N 65°18' E 023°48'10 9.6 040 / 23976.0 -7.9 0.3
2017-Feb-23 15:00N 65°24' E 024°06'10 9.6 040 / 17976.1 -7.7 0.3
2017-Feb-23 14:00N 65°30' E 024°24'2 2.5 050 / 16976.1 -8.0 0.4
2017-Feb-23 13:00N 65°30' E 024°18'10 9.6 050 / 19975.2 -8.0 0.3
2017-Feb-23 12:00N 65°24' E 024°00'2 2.5 070 / 19974.8 -7.7 0.3
2017-Feb-23 11:00N 65°24' E 024°06'10 9.6 080 / 21975.3 -7.9 0.3
2017-Feb-23 10:00N 65°30' E 024°24'1313.0 070 / 19975.5 -8.5 0.3
2017-Feb-23 09:00N 65°42' E 024°12'0 0.0 060 / 16975.7 -8.6 0.6
2017-Feb-23 08:00N 65°42' E 024°12'8 7.8 060 / 16975.8 -8.6 0.6
2017-Feb-23 07:00N 65°36' E 024°24'6 6.0 090 / 17976.1 -8.6 0.3
2017-Feb-23 06:00N 65°30' E 024°24'2 2.5 100 / 21975.5 -8.7 0.3
2017-Feb-23 05:00N 65°30' E 024°18'0 0.0 110 / 19975.4 -8.6 0.3
2017-Feb-23 04:00N 65°30' E 024°18'6 6.5 110 / 21975.6 -8.2 0.3
2017-Feb-23 03:00N 65°24' E 024°12'2 2.5 100 / 23975.5 -7.9 0.3
2017-Feb-23 02:00N 65°24' E 024°06'8 7.8 090 / 25976.3 -7.7 0.3
2017-Feb-23 01:00N 65°18' E 023°54'3 2.5 110 / 23976.0 -7.3 0.3
2017-Feb-23 00:00N 65°18' E 023°48'0 0.0 110 / 25976.5 -7.6 0.3
2017-Feb-22 23:00N 65°18' E 023°48'8 7.5 110 / 21977.4 -8.1 0.3
2017-Feb-22 22:00N 65°18' E 024°06'3 2.5 120 / 21978.4 -8.2 0.3
2017-Feb-22 21:00N 65°18' E 024°00'7 3.3 130 / 23978.6 -7.7 0.3
2017-Feb-22 19:00N 65°24' E 024°06'0 0.0 140 / 19979.5 -7.4 0.3
2017-Feb-22 18:00N 65°24' E 024°06'0 0.0 150 / 21980.2 -7.3 0.3
2017-Feb-22 17:00N 65°24' E 024°06'0 0.0 150 / 23980.7 -7.0 0.3
2017-Feb-22 16:00N 65°24' E 024°06'2 2.5 140 / 23981.4 -6.9 0.3
2017-Feb-22 15:00N 65°24' E 024°12'6 6.0 150 / 21982.3 -7.0 0.3
2017-Feb-22 14:00N 65°30' E 024°12'2 2.5 140 / 23983.2 -7.7 0.3
2017-Feb-22 13:00N 65°30' E 024°18'2 2.5 150 / 27984.1 -8.4 0.3
2017-Feb-22 12:00N 65°30' E 024°24'8 7.8 140 / 19985.0 -8.4 0.3
2017-Feb-22 11:00N 65°24' E 024°12'8 7.8 170 / 25986.1 -6.6 0.3
2017-Feb-22 10:00N 65°18' E 024°00'7 6.5 170 / 27986.6 -7.1 0.3
2017-Feb-22 09:00N 65°24' E 024°06'0 0.0 180 / 19987.2 -7.2 0.3
2017-Feb-22 08:00N 65°24' E 024°06'7 6.5 190 / 19988.0 -6.2 0.3
2017-Feb-22 07:00N 65°18' E 024°00'7 6.5 200 / 21988.4 -5.1 0.3
2017-Feb-22 06:00N 65°24' E 024°06'8 7.8 170 / 16988.9 -4.7 0.3
2017-Feb-22 05:00N 65°30' E 024°18'6 6.5 170 / 12989.5 -7.9 0.3
2017-Feb-22 04:00N 65°24' E 024°12'10 9.6 200 / 10990.2 -6.0 0.3
2017-Feb-22 03:00N 65°18' E 023°54'7 6.5 210 / 17991.0 -6.0 0.3
2017-Feb-22 02:00N 65°24' E 024°00'0 0.0 200 / 14991.9 -7.0 0.3
2017-Feb-22 01:00N 65°24' E 024°00'7 6.5 210 / 17992.4 -7.5 0.2
2017-Feb-22 00:00N 65°18' E 023°54'1212.3 230 / 14993.1 -7.2 0.3
2017-Feb-21 23:00N 65°06' E 023°48'16 3.3 240 / 12993.9 -6.1 0.3
2017-Feb-21 18:00N 65°12' E 024°24'5 5.0 290 / 14994.7 -8.2 0.3
2017-Feb-21 17:00N 65°12' E 024°36'8 7.8 300 / 12994.6 -8.9 0.3
2017-Feb-21 16:00N 65°06' E 024°48'8 7.6 280 / 14993.7 -9.4 0.4
2017-Feb-21 15:00N 65°06' E 025°06'0 0.0 290 / 10994.0 -11.4 0.4
2017-Feb-21 14:00N 65°06' E 025°06'0 0.0 320 / 12993.6 -11.1 1.2
2017-Feb-21 13:00N 65°06' E 025°06'0 0.0 300 / 12993.4 -11.7 1.3
2017-Feb-21 12:00N 65°06' E 025°06'0 0.0 300 / 6992.8 -13.2 1.4
2017-Feb-21 11:00N 65°06' E 025°06'0 0.0 340 / 8992.1 -14.3 1.3
2017-Feb-21 10:00N 65°06' E 025°06'0 0.0 330 / 10991.8 -14.6 1.3
2017-Feb-21 09:00N 65°06' E 025°06'0 0.0 320 / 12991.1 -16.0 1.3
2017-Feb-21 08:00N 65°06' E 025°06'0 0.0 330 / 10990.2 -17.0 1.2
2017-Feb-21 07:00N 65°06' E 025°06'0 0.0 340 / 12989.7 -16.7 1.1
2017-Feb-21 06:00N 65°06' E 025°06'0 0.0 320 / 14988.8 -16.0 1.2
2017-Feb-21 05:00N 65°06' E 025°06'0 0.0 320 / 19987.9 -14.8 1.2
2017-Feb-21 04:00N 65°06' E 025°06'0 0.0 320 / 17987.3 -14.4 1.1
2017-Feb-21 03:00N 65°06' E 025°06'0 0.0 320 / 16986.7 -14.6 1.2
2017-Feb-21 02:00N 65°06' E 025°06'0 0.0 320 / 17986.2 -13.8 1.0
2017-Feb-21 01:00N 65°06' E 025°06'0 0.0 330 / 17985.9 -13.4 1.1
2017-Feb-21 00:00N 65°06' E 025°06'0 0.0 310 / 14985.8 -11.3 0.9
2017-Feb-20 23:00N 65°06' E 025°06'0 0.0 300 / 17985.3 -10.2 0.9
2017-Feb-20 22:00N 65°06' E 025°06'0 0.0 270 / 16985.2 -8.0 0.8
2017-Feb-20 21:00N 65°06' E 025°06'0 0.0 220 / 12985.0 -8.5 1.0
2017-Feb-20 20:00N 65°06' E 025°06'0 0.0 200 / 8985.4 -8.1 0.8
2017-Feb-20 19:00N 65°06' E 025°06'0 0.0 190 / 14985.8 -7.6 0.5
2017-Feb-20 18:00N 65°06' E 025°06'8 7.6 170 / 12986.0 -6.0 0.5
2017-Feb-20 17:00N 65°06' E 024°48'8 7.8 170 / 8986.7 -5.6 0.3
2017-Feb-20 16:00N 65°12' E 024°36'10 9.7 220 / 12986.9 -4.9 0.3
2017-Feb-20 15:00N 65°06' E 024°18'7 6.5 210 / 12987.2 -5.1 0.3
2017-Feb-20 14:00N 65°00' E 024°12'0 0.0 210 / 10988.1 -4.7 0.3
2017-Feb-20 13:00N 65°00' E 024°12'1313.0 210 / 10988.0 -4.6 0.3
2017-Feb-20 12:00N 65°12' E 024°24'1211.7 180 / 16987.9 -6.2 0.3
2017-Feb-20 11:00N 65°06' E 024°48'5 5.1 200 / 14989.0 -7.0 0.3
2017-Feb-20 10:00N 65°06' E 025°00'1211.7 170 / 8989.2 -8.5 0.5
2017-Feb-20 09:00N 65°12' E 024°36'8 7.8 190 / 10989.3 -7.7 0.3
2017-Feb-20 08:00N 65°06' E 024°24'1312.6 270 / 2989.4 -7.2 0.3
2017-Feb-20 07:00N 65°06' E 023°54'3 2.5 020 / 2989.5 -8.2 0.3
2017-Feb-20 06:00N 65°06' E 023°48'0 0.0 270 / 6989.4 -8.0 0.7
2017-Feb-20 05:00N 65°06' E 023°48'0 0.0 200 / 2989.7 -7.8 0.7
2017-Feb-20 04:00N 65°06' E 023°48'0 0.0 090 / 4989.6 -7.6 0.6
2017-Feb-20 03:00N 65°06' E 023°48'0 0.0 010 / 10989.2 -7.8 0.5
2017-Feb-20 02:00N 65°06' E 023°48'0 0.0 989.3 -7.8 0.5
2017-Feb-20 01:00N 65°06' E 023°48'0 0.0 360 / 14989.4 -7.4 0.5
2017-Feb-20 00:00N 65°06' E 023°48'6 6.0 350 / 17988.9 -7.1 0.4
2017-Feb-19 23:00N 65°00' E 023°48'1313.0 350 / 17987.7 -6.7 0.3
2017-Feb-19 22:00N 64°48' E 024°00'13 6.5 340 / 25986.5 -5.7 0.4
2017-Feb-19 20:00N 64°36' E 024°12'1414.3 030 / 19984.9 -4.3 0.3
2017-Feb-19 19:00N 64°48' E 023°54'2512.6 020 / 19985.6 -4.3 0.4
2017-Feb-19 17:00N 65°12' E 023°36'1615.6 040 / 16987.6 -5.7 0.3
2017-Feb-19 16:00N 65°24' E 024°00'0 0.0 050 / 12988.0 -6.5 0.4
2017-Feb-19 15:00N 65°24' E 024°00'0 0.0 050 / 10988.6 -6.1 0.4
2017-Feb-19 14:00N 65°24' E 024°00'0 0.0 050 / 12989.3 -6.1 0.4
2017-Feb-19 13:00N 65°24' E 024°00'0 0.0 050 / 12989.9 -6.2 0.4
2017-Feb-19 12:00N 65°24' E 024°00'0 0.0 050 / 14990.8 -6.3 0.4
2017-Feb-19 11:00N 65°24' E 024°00'0 0.0 050 / 10991.4 -7.1 0.4
2017-Feb-19 10:00N 65°24' E 024°00'0 0.0 050 / 14991.8 -8.1 0.4
2017-Feb-19 09:00N 65°24' E 024°00'0 0.0 050 / 12992.4 -7.9 0.4
2017-Feb-19 08:00N 65°24' E 024°00'0 0.0 080 / 14992.2 -7.7 0.4
2017-Feb-19 07:00N 65°24' E 024°00'0 0.0 080 / 12992.9 -7.2 0.4
2017-Feb-19 06:00N 65°24' E 024°00'0 0.0 080 / 16993.3 -6.8 0.4
2017-Feb-19 05:00N 65°24' E 024°00'0 0.0 080 / 12993.9 -6.3 0.4
2017-Feb-19 04:00N 65°24' E 024°00'0 0.0 090 / 12994.6 -5.1 0.4
2017-Feb-19 03:00N 65°24' E 024°00'0 0.0 090 / 12995.3 -4.3 0.4
2017-Feb-19 02:00N 65°24' E 024°00'2 2.5 090 / 12995.9 -4.1 0.3
2017-Feb-19 01:00N 65°24' E 024°06'10 9.6 110 / 10996.8 -4.6 0.3
2017-Feb-19 00:00N 65°30' E 024°24'6 6.5 080 / 10997.9 -7.8 0.4
2017-Feb-18 23:00N 65°36' E 024°30'0 0.0 100 / 10998.4 -7.5 0.6
2017-Feb-18 22:00N 65°36' E 024°30'8 7.8 080 / 8998.8 -7.4 0.4
2017-Feb-18 21:00N 65°30' E 024°18'6 6.5 160 / 6998.9 -3.6 0.3
2017-Feb-18 20:00N 65°24' E 024°12'2 2.5 150 / 6999.1 -3.1 0.3
2017-Feb-18 19:00N 65°24' E 024°06'2 2.5 170 / 6999.5 -2.3 0.3
2017-Feb-18 18:00N 65°24' E 024°00'1414.2 140 / 4100.0 -1.9 0.3
2017-Feb-18 17:00N 65°12' E 023°42'1414.2 180 / 61000.1 -1.1 0.3
2017-Feb-18 16:00N 65°24' E 024°00'10 9.6 250 / 6999.8 -2.3 0.3
2017-Feb-18 15:00N 65°30' E 024°18'6 6.5 290 / 61000.1 -2.5 0.3
2017-Feb-18 14:00N 65°24' E 024°12'5 5.0 320 / 8999.8 -2.5 0.3
2017-Feb-18 13:00N 65°24' E 024°00'5 5.0 310 / 101000.2 -1.7 0.3
2017-Feb-18 12:00N 65°24' E 024°12'0 0.0 280 / 8999.7 -1.9 0.3
2017-Feb-18 11:00N 65°24' E 024°12'5 5.0 290 / 8999.2 -1.5 0.3
2017-Feb-18 10:00N 65°24' E 024°00'10 9.6 310 / 10998.9 -1.2 0.3
2017-Feb-18 09:00N 65°18' E 023°42'7 6.5 290 / 17998.8 -1.5 0.3
2017-Feb-18 08:00N 65°12' E 023°36'10 9.7 300 / 19999.0 -1.0 0.3
2017-Feb-18 07:00N 65°06' E 023°18'10 9.7 290 / 27997.9 -0.0 0.3
2017-Feb-18 06:00N 65°12' E 023°36'8 7.8 270 / 33996.8 -0.5 0.3
2017-Feb-18 05:00N 65°18' E 023°48'7 6.5 260 / 31996.7 -0.3 0.3
2017-Feb-18 04:00N 65°24' E 023°54'5 5.0 260 / 33996.7 -0.3 0.3
2017-Feb-18 03:00N 65°24' E 024°06'6 6.5 260 / 31997.7 -0.4 0.3
2017-Feb-18 02:00N 65°30' E 024°12'2 2.5 260 / 23998.6 -0.8 0.3
2017-Feb-18 01:00N 65°30' E 024°18'8 7.8 270 / 25999.0 -0.8 0.3
2017-Feb-18 00:00N 65°24' E 024°06'2 2.5 270 / 29999.6 -0.3 0.3
2017-Feb-17 23:00N 65°24' E 024°00'2 2.5 270 / 29999.7 0.1 0.3
2017-Feb-17 22:00N 65°24' E 024°06'8 7.8 270 / 27999.6 -0.4 0.3
2017-Feb-17 21:00N 65°30' E 024°18'2 2.5 280 / 21999.5 -0.5 0.3
2017-Feb-17 20:00N 65°30' E 024°24'6 6.0 270 / 27999.2 -0.3 0.4
2017-Feb-17 19:00N 65°36' E 024°24'8 7.8 270 / 21999.5 -1.8 0.4
2017-Feb-17 18:00N 65°42' E 024°12'0 0.0 280 / 14999.6 0.4 0.6
2017-Feb-17 17:00N 65°42' E 024°12'0 0.0 290 / 19999.3 0.8 1.0
2017-Feb-17 16:00N 65°42' E 024°12'0 0.0 290 / 17998.9 0.2 1.1
2017-Feb-17 15:00N 65°42' E 024°12'0 0.0 300 / 19998.6 2.0 0.9
2017-Feb-17 14:00N 65°42' E 024°12'8 7.8 280 / 16998.1 3.2 0.4
2017-Feb-17 13:00N 65°36' E 024°24'0 0.0 280 / 16997.8 2.4 1.4
2017-Feb-17 12:00N 65°36' E 024°24'0 0.0 290 / 12997.5 0.1 1.2
2017-Feb-17 11:00N 65°36' E 024°24'0 0.0 280 / 17997.1 0.8 1.2
2017-Feb-17 10:00N 65°36' E 024°24'0 0.0 280 / 14996.6 -0.5 1.2
2017-Feb-17 09:00N 65°36' E 024°24'0 0.0 260 / 12996.2 0.1 1.2
2017-Feb-17 08:00N 65°36' E 024°24'0 0.0 250 / 17996.3 -0.0 1.0
2017-Feb-17 07:00N 65°36' E 024°24'0 0.0 240 / 19995.6 -1.2 1.1
2017-Feb-17 06:00N 65°36' E 024°24'0 0.0 240 / 19995.9 -1.9 1.2
2017-Feb-17 05:00N 65°36' E 024°24'0 0.0 250 / 21996.9 -2.1 1.1
2017-Feb-17 04:00N 65°36' E 024°24'0 0.0 230 / 16997.6 -1.9 0.9
2017-Feb-17 03:00N 65°36' E 024°24'6 6.5 220 / 19997.9 -1.9 0.5
2017-Feb-17 02:00N 65°30' E 024°18'10 9.6 230 / 19999.3 -1.2 0.3
2017-Feb-17 01:00N 65°24' E 024°00'10 9.6 230 / 161000.1 -1.1 0.3
2017-Feb-17 00:00N 65°30' E 024°18'10 9.6 210 / 161000.7 -1.6 0.3
2017-Feb-16 23:00N 65°24' E 024°00'1414.2 220 / 161001.4 -1.2 0.3
2017-Feb-16 22:00N 65°12' E 023°42'7 6.5 210 / 171002.4 -0.7 0.3
2017-Feb-16 21:00N 65°06' E 023°36'0 0.0 220 / 211002.9 -0.3 0.7
2017-Feb-16 20:00N 65°06' E 023°36'0 0.0 220 / 231003.6 -0.2 0.6
2017-Feb-16 19:00N 65°06' E 023°36'1212.3 220 / 191004.4 -0.3 0.3
2017-Feb-16 18:00N 65°18' E 023°42'10 9.6 220 / 171004.7 -1.0 0.3
2017-Feb-16 17:00N 65°24' E 024°00'1414.2 200 / 141005.9 -1.1 0.3
2017-Feb-16 16:00N 65°12' E 023°42'1615.6 210 / 161005.7 -1.0 0.3
2017-Feb-16 15:00N 65°24' E 024°06'   220 / 121006.7 -1.9 0.3

Dump ship's entire track history